Cockenzie, United Kingdom
Current Conditions -  °F | °C
As of 11:20 AM on Saturday 25 Oct 2014 (Local Time) from EGPH Reporting Station
Few Clouds Few Clouds  
Wind Chill: 12°   Ceiling: Unl
Heat Index: 12°   Visibility: 6mi
Dew Point:   Wind: 26mph
Humidity: 77%   Direction: 230°SW
Pressure: 29.68"   Gusts: 38mph
Location:  55.97°N, 2.97°W
Report Text: EGPH 251020Z 23023G33KT 9999 FEW023 12/08 Q1005
Loading
Personal Weather Stations






























Interactive Weather Map
Tropical Storm Tracking
New forecast layout! Learn more

10-Day Weather Forecast

Advertisements
Track Severe Weather on mobile